createdAt,value
2018-02-16T00:02:03.324Z,22.23
2018-02-16T00:04:31.395Z,24.43
2018-02-16T00:06:59.650Z,23.03
2018-02-16T00:09:27.918Z,22.47
2018-02-16T00:11:56.198Z,22.70
2018-02-16T00:14:24.449Z,20.67
2018-02-16T00:16:52.761Z,22.93
2018-02-16T00:19:21.025Z,22.00
2018-02-16T00:21:49.293Z,22.30
2018-02-16T00:24:17.557Z,21.97
2018-02-16T00:26:45.806Z,21.80
2018-02-16T00:29:14.051Z,23.10
2018-02-16T00:31:42.319Z,20.97
2018-02-16T00:34:10.582Z,22.17
2018-02-16T00:36:38.870Z,21.50
2018-02-16T00:39:07.130Z,21.80
2018-02-16T00:41:35.381Z,21.70
2018-02-16T00:44:03.657Z,23.30
2018-02-16T00:46:31.909Z,22.53
2018-02-16T00:49:01.070Z,20.57
2018-02-16T00:51:29.326Z,21.57
2018-02-16T00:53:57.579Z,21.70
2018-02-16T00:56:25.840Z,22.57
2018-02-16T00:58:54.110Z,21.70
2018-02-16T01:01:22.362Z,22.20
2018-02-16T01:03:50.613Z,21.77
2018-02-16T01:06:19.650Z,23.40
2018-02-16T01:08:47.903Z,21.70
2018-02-16T01:11:16.268Z,20.70
2018-02-16T01:13:44.543Z,21.00
2018-02-16T01:16:13.530Z,19.90
2018-02-16T01:18:41.802Z,21.87
2018-02-16T01:21:10.049Z,20.10
2018-02-16T01:23:38.318Z,20.17
2018-02-16T01:26:06.572Z,19.93
2018-02-16T01:28:34.817Z,20.20
2018-02-16T01:31:03.084Z,21.13
2018-02-16T01:33:31.347Z,21.30
2018-02-16T01:35:59.597Z,20.80
2018-02-16T01:38:27.853Z,18.90
2018-02-16T01:40:56.125Z,18.83
2018-02-16T01:43:24.413Z,20.10
2018-02-16T01:45:52.703Z,19.10
2018-02-16T01:48:20.943Z,19.13
2018-02-16T01:50:49.228Z,20.90
2018-02-16T01:53:18.998Z,18.77
2018-02-16T01:55:47.271Z,19.20
2018-02-16T01:58:15.517Z,21.43
2018-02-16T02:00:43.770Z,21.07
2018-02-16T02:03:12.033Z,20.47
2018-02-16T02:05:40.286Z,19.80
2018-02-16T02:08:08.533Z,21.73
2018-02-16T02:10:37.335Z,19.93
2018-02-16T02:13:05.643Z,21.13
2018-02-16T02:15:33.900Z,19.90
2018-02-16T02:18:02.156Z,22.13
2018-02-16T02:20:30.409Z,20.97
2018-02-16T02:22:58.677Z,20.80
2018-02-16T02:25:26.931Z,21.17
2018-02-16T02:27:55.186Z,20.70
2018-02-16T02:30:23.458Z,21.27
2018-02-16T02:32:51.714Z,23.90
2018-02-16T02:35:20.255Z,22.93
2018-02-16T02:37:48.507Z,22.10
2018-02-16T02:40:16.771Z,18.90
2018-02-16T02:42:45.028Z,21.10
2018-02-16T02:45:13.284Z,18.40
2018-02-16T02:47:41.538Z,20.27
2018-02-16T02:50:11.260Z,19.53
2018-02-16T02:52:39.524Z,19.90
2018-02-16T02:55:09.562Z,21.00
2018-02-16T02:57:37.818Z,18.97
2018-02-16T03:00:09.180Z,18.07
2018-02-16T03:02:37.436Z,19.10
2018-02-16T03:05:07.961Z,18.80
2018-02-16T03:07:36.206Z,16.53
2018-02-16T03:10:05.740Z,16.87
2018-02-16T03:12:36.161Z,17.90
2018-02-16T03:15:05.161Z,17.27
2018-02-16T03:17:33.419Z,16.40
2018-02-16T03:20:01.669Z,15.77
2018-02-16T03:22:29.933Z,17.43
2018-02-16T03:24:58.190Z,15.10
2018-02-16T03:27:26.442Z,14.03
2018-02-16T03:29:55.431Z,15.27
2018-02-16T03:32:24.202Z,16.23
2018-02-16T03:34:52.454Z,15.00
2018-02-16T03:37:21.371Z,16.10
2018-02-16T03:39:49.683Z,15.93
2018-02-16T03:42:17.930Z,14.40
2018-02-16T03:44:46.183Z,15.37
2018-02-16T03:47:14.438Z,13.80
2018-02-16T03:49:43.002Z,14.83
2018-02-16T03:52:11.282Z,15.43
2018-02-16T03:54:39.532Z,14.40
2018-02-16T03:57:07.783Z,16.00
2018-02-16T03:59:36.762Z,16.70
2018-02-16T04:02:05.025Z,16.00
2018-02-16T04:04:33.279Z,14.50
2018-02-16T04:07:02.622Z,15.83
2018-02-16T04:09:30.873Z,16.50
2018-02-16T04:11:59.134Z,16.07
2018-02-16T04:14:27.382Z,15.43
2018-02-16T04:16:55.631Z,15.53
2018-02-16T04:19:23.881Z,14.43
2018-02-16T04:21:52.153Z,15.10
2018-02-16T04:24:20.406Z,15.27
2018-02-16T04:26:48.658Z,16.00
2018-02-16T04:29:16.911Z,15.00
2018-02-16T04:31:45.162Z,16.30
2018-02-16T04:34:13.415Z,14.63
2018-02-16T04:36:41.662Z,15.53
2018-02-16T04:39:09.913Z,16.37
2018-02-16T04:41:38.169Z,15.30
2018-02-16T04:44:06.425Z,15.00
2018-02-16T04:46:34.670Z,17.43
2018-02-16T04:49:02.919Z,17.43
2018-02-16T04:51:32.006Z,16.43
2018-02-16T04:54:00.541Z,16.50
2018-02-16T04:56:29.020Z,16.60
2018-02-16T04:58:57.907Z,16.83
2018-02-16T05:01:26.152Z,15.10
2018-02-16T05:03:54.433Z,16.47
2018-02-16T05:06:23.073Z,14.43
2018-02-16T05:08:51.320Z,16.80
2018-02-16T05:11:19.577Z,17.57
2018-02-16T05:13:47.827Z,16.83
2018-02-16T05:16:16.097Z,16.03
2018-02-16T05:18:44.346Z,17.03
2018-02-16T05:21:12.617Z,19.23
2018-02-16T05:23:40.865Z,17.70
2018-02-16T05:26:09.117Z,20.30
2018-02-16T05:28:37.408Z,20.20
2018-02-16T05:31:05.715Z,18.53
2018-02-16T05:33:33.964Z,18.23
2018-02-16T05:36:02.230Z,19.10
2018-02-16T05:38:30.493Z,20.73
2018-02-16T05:40:58.745Z,18.60
2018-02-16T05:43:26.995Z,20.07
2018-02-16T05:45:55.293Z,19.50
2018-02-16T05:48:23.358Z,21.27
2018-02-16T05:50:51.607Z,19.43
2018-02-16T05:53:19.868Z,21.10
2018-02-16T05:55:48.137Z,18.23
2018-02-16T05:58:16.385Z,22.63
2018-02-16T06:00:44.657Z,22.47
2018-02-16T06:03:13.870Z,22.67
2018-02-16T06:05:42.128Z,22.47
2018-02-16T06:08:10.379Z,21.67
2018-02-16T06:10:38.627Z,23.03
2018-02-16T06:13:06.885Z,23.83
2018-02-16T06:15:35.137Z,23.30
2018-02-16T06:18:03.417Z,24.00
2018-02-16T06:20:31.666Z,24.77
2018-02-16T06:22:59.933Z,24.30
2018-02-16T06:25:28.193Z,23.67
2018-02-16T06:27:56.465Z,24.90
2018-02-16T06:30:24.722Z,24.60
2018-02-16T06:32:52.973Z,24.03
2018-02-16T06:35:21.257Z,24.17
2018-02-16T06:37:49.522Z,23.03
2018-02-16T06:40:17.775Z,28.30
2018-02-16T06:42:46.031Z,24.07
2018-02-16T06:45:14.289Z,24.50
2018-02-16T06:47:42.554Z,26.73
2018-02-16T06:50:10.826Z,24.90
2018-02-16T06:52:39.081Z,24.73
2018-02-16T06:55:08.347Z,22.40
2018-02-16T06:57:36.617Z,24.80
2018-02-16T07:00:06.901Z,24.70
2018-02-16T07:02:35.194Z,23.70
2018-02-16T07:05:03.452Z,24.90
2018-02-16T07:07:31.727Z,25.33
2018-02-16T07:09:59.986Z,26.73
2018-02-16T07:12:31.031Z,24.73
2018-02-16T07:14:59.938Z,25.43
2018-02-16T07:17:28.197Z,25.43
2018-02-16T07:19:56.809Z,25.43
2018-02-16T07:22:25.073Z,25.10
2018-02-16T07:24:53.349Z,28.13
2018-02-16T07:27:21.597Z,27.10
2018-02-16T07:29:49.855Z,27.30
2018-02-16T07:32:18.922Z,27.30
2018-02-16T07:34:47.548Z,27.77
2018-02-16T07:37:16.174Z,28.97
2018-02-16T07:39:44.438Z,28.37
2018-02-16T07:42:12.694Z,28.63
2018-02-16T07:44:41.583Z,29.33
2018-02-16T07:47:09.834Z,28.10
2018-02-16T07:49:38.100Z,25.47
2018-02-16T07:52:06.569Z,26.13
2018-02-16T07:54:34.829Z,26.83
2018-02-16T07:57:03.105Z,28.00
2018-02-16T07:59:31.366Z,29.47
2018-02-16T08:01:59.628Z,30.80
2018-02-16T08:04:27.894Z,29.30
2018-02-16T08:06:56.146Z,31.77
2018-02-16T08:09:24.413Z,30.80
2018-02-16T08:11:52.666Z,29.07
2018-02-16T08:14:20.919Z,30.07
2018-02-16T08:16:49.177Z,30.90
2018-02-16T08:19:17.434Z,30.77
2018-02-16T08:21:45.941Z,30.47
2018-02-16T08:24:14.208Z,32.47
2018-02-16T08:26:42.465Z,29.80
2018-02-16T08:29:10.726Z,31.23
2018-02-16T08:31:38.982Z,30.40
2018-02-16T08:34:07.246Z,30.53
2018-02-16T08:36:35.502Z,33.33
2018-02-16T08:39:03.431Z,33.33
2018-02-16T08:41:31.690Z,32.03
2018-02-16T08:43:59.958Z,33.63
2018-02-16T08:46:28.218Z,34.30
2018-02-16T08:48:56.515Z,32.40
2018-02-16T08:51:24.933Z,30.53
2018-02-16T08:53:53.201Z,32.70
2018-02-16T08:56:21.459Z,35.47
2018-02-16T08:58:49.753Z,32.87
2018-02-16T09:01:18.023Z,36.17
2018-02-16T09:03:46.106Z,33.27
2018-02-16T09:06:14.376Z,33.03
2018-02-16T09:08:42.647Z,33.40
2018-02-16T09:11:10.903Z,33.13
2018-02-16T09:13:39.166Z,34.83
2018-02-16T09:16:07.426Z,35.10
2018-02-16T09:18:35.681Z,33.00
2018-02-16T09:21:03.944Z,35.20
2018-02-16T09:23:32.215Z,33.57
2018-02-16T09:26:00.495Z,28.43
2018-02-16T09:28:28.755Z,35.53
2018-02-16T09:30:57.025Z,31.43
2018-02-16T09:33:25.275Z,29.97
2018-02-16T09:35:54.020Z,30.03
2018-02-16T09:38:22.288Z,30.00
2018-02-16T09:40:50.550Z,28.40
2018-02-16T09:43:18.816Z,25.37
2018-02-16T09:45:47.073Z,32.20
2018-02-16T09:48:15.370Z,25.27
2018-02-16T09:50:43.638Z,25.20
2018-02-16T09:53:11.906Z,21.90
2018-02-16T09:55:40.165Z,20.83
2018-02-16T09:58:08.431Z,24.07
2018-02-16T10:00:36.716Z,22.70
2018-02-16T10:03:04.977Z,24.10
2018-02-16T10:05:33.237Z,22.83
2018-02-16T10:08:01.500Z,23.17
2018-02-16T10:10:29.758Z,24.73
2018-02-16T10:12:58.409Z,21.80
2018-02-16T10:15:26.682Z,26.67
2018-02-16T10:17:54.937Z,21.80
2018-02-16T10:20:23.023Z,22.67
2018-02-16T10:22:51.291Z,21.23
2018-02-16T10:25:19.550Z,19.73
2018-02-16T10:27:47.815Z,18.80
2018-02-16T10:30:16.076Z,14.17
2018-02-16T10:32:44.334Z,10.63
2018-02-16T10:35:12.601Z,12.40
2018-02-16T10:37:40.858Z,10.97
2018-02-16T10:40:09.650Z,9.97
2018-02-16T10:42:37.897Z,9.70
2018-02-16T10:45:08.786Z,10.30
2018-02-16T10:47:37.047Z,11.63
2018-02-16T10:50:07.303Z,11.27
2018-02-16T10:52:35.570Z,10.57
2018-02-16T10:55:04.611Z,10.67
2018-02-16T10:57:33.186Z,9.73
2018-02-16T11:00:01.438Z,8.90
2018-02-16T11:02:35.170Z,9.53
2018-02-16T11:05:14.755Z,10.03
2018-02-16T11:07:48.470Z,9.27
2018-02-16T11:10:16.738Z,9.20
2018-02-16T11:12:44.997Z,10.10
2018-02-16T11:15:13.296Z,9.83
2018-02-16T11:17:41.729Z,8.40
2018-02-16T11:20:09.301Z,9.37
2018-02-16T11:22:38.166Z,8.80
2018-02-16T11:25:11.169Z,8.47
2018-02-16T11:27:39.430Z,9.30
2018-02-16T11:30:13.470Z,9.00
2018-02-16T11:32:41.734Z,9.17
2018-02-16T11:35:14.305Z,8.70
2018-02-16T11:37:42.565Z,10.20
2018-02-16T11:40:16.252Z,9.10
2018-02-16T11:42:44.527Z,8.77
2018-02-16T11:45:12.925Z,10.17
2018-02-16T11:47:41.841Z,17.67
2018-02-16T11:50:16.366Z,8.27
2018-02-16T11:52:44.802Z,8.83
2018-02-16T11:55:13.074Z,8.73
2018-02-16T11:57:41.319Z,6.00
2018-02-16T12:00:15.266Z,7.17
2018-02-16T12:02:43.536Z,8.27
2018-02-16T12:05:15.702Z,8.00
2018-02-16T12:07:43.969Z,8.90
2018-02-16T12:10:12.447Z,8.20
2018-02-16T12:12:40.703Z,8.53
2018-02-16T12:15:11.365Z,9.00
2018-02-16T12:17:39.645Z,9.37
2018-02-16T12:20:12.414Z,11.13
2018-02-16T12:22:40.778Z,9.37
2018-02-16T12:25:11.638Z,11.80
2018-02-16T12:27:39.897Z,12.83
2018-02-16T12:30:11.651Z,10.87
2018-02-16T12:32:39.931Z,11.40
2018-02-16T12:35:15.563Z,10.63
2018-02-16T12:37:43.817Z,10.57
2018-02-16T12:40:12.386Z,10.50
2018-02-16T12:42:40.651Z,11.30
2018-02-16T12:45:13.218Z,11.40
2018-02-16T12:47:41.198Z,11.63
2018-02-16T12:50:12.722Z,11.70
2018-02-16T12:52:40.997Z,10.47
2018-02-16T12:55:15.881Z,10.60
2018-02-16T12:57:44.133Z,11.07
2018-02-16T13:00:15.670Z,11.40
2018-02-16T13:02:43.953Z,11.10
2018-02-16T13:05:12.448Z,12.87
2018-02-16T13:07:40.707Z,12.60
2018-02-16T13:10:15.290Z,11.80
2018-02-16T13:12:43.571Z,12.57
2018-02-16T13:15:12.542Z,12.47
2018-02-16T13:17:40.799Z,11.13
2018-02-16T13:20:16.132Z,11.40
2018-02-16T13:22:44.395Z,10.60
2018-02-16T13:25:12.724Z,10.97
2018-02-16T13:27:41.778Z,11.87
2018-02-16T13:30:09.417Z,11.30
2018-02-16T13:32:38.628Z,11.90
2018-02-16T13:35:12.150Z,10.03
2018-02-16T13:37:40.406Z,11.73
2018-02-16T13:40:15.622Z,10.10
2018-02-16T13:42:43.886Z,10.40
2018-02-16T13:45:14.474Z,10.70
2018-02-16T13:47:42.725Z,12.30
2018-02-16T13:50:13.286Z,11.40
2018-02-16T13:52:42.323Z,11.07
2018-02-16T13:55:15.680Z,12.70
2018-02-16T13:57:43.950Z,12.00
2018-02-16T14:00:15.954Z,12.37
2018-02-16T14:02:44.225Z,13.83
2018-02-16T14:05:16.741Z,13.60
2018-02-16T14:07:45.015Z,12.00
2018-02-16T14:10:13.930Z,13.00
2018-02-16T14:12:42.189Z,12.33
2018-02-16T14:15:15.477Z,11.60
2018-02-16T14:17:43.735Z,13.00
2018-02-16T14:20:13.166Z,11.90
2018-02-16T14:22:41.433Z,12.93
2018-02-16T14:25:12.511Z,13.77
2018-02-16T14:27:40.773Z,11.23
2018-02-16T14:30:14.784Z,11.20
2018-02-16T14:32:43.038Z,12.77
2018-02-16T14:35:13.095Z,11.40
2018-02-16T14:37:41.353Z,12.43
2018-02-16T14:40:12.333Z,11.90
2018-02-16T14:42:40.597Z,11.87
2018-02-16T14:45:12.757Z,11.63
2018-02-16T14:47:41.202Z,11.93
2018-02-16T14:50:12.875Z,10.50
2018-02-16T14:52:41.135Z,11.13
2018-02-16T14:55:14.721Z,10.10
2018-02-16T14:57:42.977Z,12.20
2018-02-16T15:00:11.583Z,11.40
2018-02-16T15:02:39.846Z,12.23
2018-02-16T15:05:12.393Z,11.40
2018-02-16T15:07:40.651Z,11.20
2018-02-16T15:10:12.515Z,10.40
2018-02-16T15:12:40.761Z,11.77
2018-02-16T15:15:14.573Z,11.27
2018-02-16T15:17:42.844Z,10.40
2018-02-16T15:20:11.282Z,10.00
2018-02-16T15:22:39.537Z,10.33
2018-02-16T15:25:10.571Z,11.07
2018-02-16T15:27:38.822Z,16.63
2018-02-16T15:30:15.795Z,9.63
2018-02-16T15:32:44.065Z,10.70
2018-02-16T15:35:12.377Z,18.37
2018-02-16T15:37:40.650Z,11.87
2018-02-16T15:40:12.725Z,11.77
2018-02-16T15:42:40.988Z,17.43
2018-02-16T15:45:14.977Z,10.00
2018-02-16T15:47:43.237Z,13.87
2018-02-16T15:50:12.697Z,11.37
2018-02-16T15:52:40.953Z,11.83
2018-02-16T15:55:15.537Z,13.93
2018-02-16T15:57:43.806Z,12.30
2018-02-16T16:00:12.062Z,13.50
2018-02-16T16:02:40.133Z,12.97
2018-02-16T16:05:10.827Z,11.33
2018-02-16T16:07:39.091Z,11.20
2018-02-16T16:10:10.850Z,13.20
2018-02-16T16:12:39.105Z,11.87
2018-02-16T16:15:09.087Z,11.93
2018-02-16T16:17:37.363Z,13.50
2018-02-16T16:20:10.558Z,13.20
2018-02-16T16:22:38.815Z,12.10
2018-02-16T16:25:12.233Z,12.47
2018-02-16T16:27:40.490Z,12.37
2018-02-16T16:30:12.891Z,12.47
2018-02-16T16:32:41.142Z,12.77
2018-02-16T16:35:09.401Z,12.10
2018-02-16T16:37:37.666Z,12.97
2018-02-16T16:40:08.405Z,12.90
2018-02-16T16:42:36.686Z,15.23
2018-02-16T16:45:10.718Z,11.87
2018-02-16T16:47:38.985Z,11.67
2018-02-16T16:50:11.493Z,13.13
2018-02-16T16:52:39.774Z,13.10
2018-02-16T16:55:09.075Z,11.40
2018-02-16T16:57:37.330Z,13.30
2018-02-16T17:00:07.418Z,12.47
2018-02-16T17:02:35.709Z,12.63
2018-02-16T17:05:03.944Z,14.07
2018-02-16T17:07:32.197Z,13.13
2018-02-16T17:10:00.497Z,12.13
2018-02-16T17:12:28.756Z,12.60
2018-02-16T17:14:57.010Z,12.80
2018-02-16T17:17:25.278Z,12.50
2018-02-16T17:19:53.562Z,10.90
2018-02-16T17:22:21.831Z,11.90
2018-02-16T17:24:50.106Z,11.07
2018-02-16T17:27:18.370Z,13.03
2018-02-16T17:29:46.621Z,12.73
2018-02-16T17:32:15.713Z,16.20
2018-02-16T17:34:43.965Z,22.47
2018-02-16T17:37:12.263Z,19.27
2018-02-16T17:39:40.521Z,18.60
2018-02-16T17:42:08.779Z,19.23
2018-02-16T17:44:37.034Z,15.90
2018-02-16T17:47:05.306Z,25.03
2018-02-16T17:49:33.569Z,30.50
2018-02-16T17:52:01.834Z,31.90
2018-02-16T17:54:30.099Z,33.13
2018-02-16T17:56:58.347Z,31.07
2018-02-16T17:59:26.613Z,33.13
2018-02-16T18:01:54.877Z,35.70
2018-02-16T18:04:23.138Z,37.00
2018-02-16T18:06:51.397Z,38.47
2018-02-16T18:09:19.657Z,36.40
2018-02-16T18:11:47.923Z,37.63
2018-02-16T18:14:16.200Z,39.77
2018-02-16T18:16:44.463Z,38.60
2018-02-16T18:19:12.718Z,37.50
2018-02-16T18:21:40.986Z,42.97
2018-02-16T18:24:09.261Z,39.30
2018-02-16T18:26:37.529Z,39.87
2018-02-16T18:29:05.781Z,41.43
2018-02-16T18:31:34.034Z,37.70
2018-02-16T18:34:02.299Z,39.80
2018-02-16T18:36:30.378Z,40.10
2018-02-16T18:38:58.635Z,39.37
2018-02-16T18:41:26.901Z,39.90
2018-02-16T18:43:55.158Z,39.40
2018-02-16T18:46:23.413Z,40.50
2018-02-16T18:48:51.694Z,39.57
2018-02-16T18:51:19.950Z,42.13
2018-02-16T18:53:48.230Z,42.00
2018-02-16T18:56:16.479Z,38.37
2018-02-16T18:58:44.747Z,39.97
2018-02-16T19:01:13.022Z,39.60
2018-02-16T19:03:41.278Z,38.90
2018-02-16T19:06:09.546Z,39.10
2018-02-16T19:08:38.018Z,38.73
2018-02-16T19:11:05.971Z,38.50
2018-02-16T19:13:34.218Z,38.97
2018-02-16T19:16:02.483Z,37.33
2018-02-16T19:18:30.742Z,39.63
2018-02-16T19:20:59.004Z,36.87
2018-02-16T19:23:27.271Z,36.50
2018-02-16T19:25:55.522Z,37.97
2018-02-16T19:28:23.790Z,37.00
2018-02-16T19:30:52.040Z,37.87
2018-02-16T19:33:20.308Z,35.90
2018-02-16T19:35:48.566Z,40.10
2018-02-16T19:38:16.837Z,34.13
2018-02-16T19:40:45.094Z,38.80
2018-02-16T19:43:13.350Z,36.00
2018-02-16T19:45:41.606Z,39.77
2018-02-16T19:48:09.862Z,39.23
2018-02-16T19:50:38.131Z,38.60
2018-02-16T19:53:06.386Z,34.17
2018-02-16T19:55:34.654Z,35.20
2018-02-16T19:58:02.912Z,38.97
2018-02-16T20:00:31.162Z,46.00
2018-02-16T20:02:59.421Z,39.43
2018-02-16T20:05:27.695Z,38.10
2018-02-16T20:07:55.954Z,38.00
2018-02-16T20:10:24.221Z,41.77
2018-02-16T20:12:53.039Z,39.50
2018-02-16T20:15:21.314Z,39.73
2018-02-16T20:17:49.570Z,40.70
2018-02-16T20:20:17.821Z,40.20
2018-02-16T20:22:46.121Z,37.87
2018-02-16T20:25:14.389Z,37.00
2018-02-16T20:27:42.658Z,44.00
2018-02-16T20:30:13.371Z,39.47
2018-02-16T20:32:41.630Z,38.40
2018-02-16T20:35:12.884Z,38.73
2018-02-16T20:37:41.162Z,38.60
2018-02-16T20:40:09.235Z,37.97
2018-02-16T20:42:37.485Z,38.80
2018-02-16T20:45:06.019Z,37.10
2018-02-16T20:47:34.276Z,35.43
2018-02-16T20:50:02.555Z,39.60
2018-02-16T20:52:30.808Z,39.20
2018-02-16T20:54:59.077Z,38.00
2018-02-16T20:57:27.334Z,40.60
2018-02-16T20:59:55.595Z,39.27
2018-02-16T21:02:23.853Z,39.43
2018-02-16T21:04:52.122Z,37.40
2018-02-16T21:07:20.390Z,37.47
2018-02-16T21:09:48.487Z,37.20
2018-02-16T21:12:16.751Z,37.07
2018-02-16T21:14:45.014Z,40.20
2018-02-16T21:17:13.290Z,34.93
2018-02-16T21:19:41.557Z,39.27
2018-02-16T21:22:09.822Z,39.73
2018-02-16T21:24:38.096Z,37.93
2018-02-16T21:27:06.373Z,40.77
2018-02-16T21:29:34.626Z,38.87
2018-02-16T21:32:02.908Z,37.77
2018-02-16T21:34:31.169Z,38.77
2018-02-16T21:36:59.519Z,38.17
2018-02-16T21:39:27.593Z,39.40
2018-02-16T21:41:55.849Z,37.20
2018-02-16T21:44:24.106Z,37.20
2018-02-16T21:46:52.357Z,39.53
2018-02-16T21:49:20.618Z,41.30
2018-02-16T21:51:48.870Z,40.50
2018-02-16T21:54:17.121Z,40.87
2018-02-16T21:56:45.387Z,40.87
2018-02-16T21:59:13.653Z,44.33
2018-02-16T22:01:41.929Z,43.00
2018-02-16T22:04:10.189Z,42.37
2018-02-16T22:06:38.450Z,43.27
2018-02-16T22:09:06.716Z,40.87
2018-02-16T22:11:34.973Z,39.33
2018-02-16T22:14:03.268Z,42.03
2018-02-16T22:16:31.521Z,41.70
2018-02-16T22:18:59.769Z,41.10
2018-02-16T22:21:28.041Z,39.93
2018-02-16T22:23:56.295Z,42.50
2018-02-16T22:26:24.381Z,40.50
2018-02-16T22:28:52.645Z,40.53
2018-02-16T22:31:20.899Z,41.50
2018-02-16T22:33:49.168Z,40.47
2018-02-16T22:36:17.426Z,39.77
2018-02-16T22:38:45.693Z,39.90
2018-02-16T22:41:13.965Z,40.67
2018-02-16T22:43:42.250Z,42.00
2018-02-16T22:46:10.517Z,38.97
2018-02-16T22:48:38.798Z,36.60
2018-02-16T22:51:07.076Z,41.43
2018-02-16T22:53:35.341Z,42.57
2018-02-16T22:56:03.409Z,41.47
2018-02-16T22:58:31.670Z,41.00
2018-02-16T23:00:59.934Z,39.63
2018-02-16T23:03:28.189Z,38.63
2018-02-16T23:05:56.445Z,38.50
2018-02-16T23:08:24.698Z,40.07
2018-02-16T23:10:52.953Z,41.40
2018-02-16T23:13:21.210Z,40.20
2018-02-16T23:15:49.470Z,37.40
2018-02-16T23:18:17.729Z,38.83
2018-02-16T23:20:45.998Z,35.87
2018-02-16T23:23:14.253Z,40.03
2018-02-16T23:25:42.509Z,37.57
2018-02-16T23:28:10.773Z,35.10
2018-02-16T23:30:39.027Z,40.77
2018-02-16T23:33:07.286Z,39.17
2018-02-16T23:35:35.807Z,36.97
2018-02-16T23:38:04.078Z,40.50
2018-02-16T23:40:32.333Z,40.37
2018-02-16T23:43:00.543Z,41.80
2018-02-16T23:45:28.803Z,43.50
2018-02-16T23:47:57.059Z,41.23
2018-02-16T23:50:25.321Z,43.43
2018-02-16T23:52:53.598Z,43.83
2018-02-16T23:55:21.874Z,41.63
2018-02-16T23:57:50.150Z,42.53
